Terminal Aerodrome Forecast
Issued by NWS Tulsa, OK

Home | Current Version | Previous Version | Text Only | Print | Product List | Glossary On
Versions: 1 2 3 4 5 6 7 8 9 10 11 12 13 14 15 16 17
000
FTUS44 KTSA 101100
TAFFSM
TAF
KFSM 101137Z 1012/1112 08005KT P6SM SCT120 BKN250
      TEMPO 1016/1019 5SM -TSRA BKN050CB
     FM102000 09006KT P6SM BKN120
     FM110100 08003KT P6SM SKC=

USA.gov is the U.S. government's official web portal to all federal, state and local government web resources and services.